createdAt,value
2019-03-18T00:00:24.424Z,4.34
2019-03-18T00:01:24.418Z,4.30
2019-03-18T00:02:24.405Z,4.28
2019-03-18T00:03:24.403Z,4.26
2019-03-18T00:04:24.383Z,4.26
2019-03-18T00:05:24.430Z,4.31
2019-03-18T00:06:24.368Z,4.28
2019-03-18T00:07:24.346Z,4.26
2019-03-18T00:08:24.342Z,4.26
2019-03-18T00:09:24.323Z,4.24
2019-03-18T00:10:24.312Z,4.20
2019-03-18T00:11:24.342Z,4.16
2019-03-18T00:12:24.294Z,4.14
2019-03-18T00:13:24.323Z,4.14
2019-03-18T00:14:24.285Z,4.13
2019-03-18T00:15:24.262Z,4.22
2019-03-18T00:16:24.262Z,4.14
2019-03-18T00:17:24.238Z,4.23
2019-03-18T00:18:24.283Z,4.22
2019-03-18T00:19:24.215Z,4.16
2019-03-18T00:20:24.219Z,4.14
2019-03-18T00:21:24.196Z,4.10
2019-03-18T00:22:24.219Z,4.22
2019-03-18T00:23:24.176Z,4.20
2019-03-18T00:24:24.253Z,4.20
2019-03-18T00:25:24.148Z,4.19
2019-03-18T00:26:24.136Z,4.14
2019-03-18T00:27:24.131Z,4.19
2019-03-18T00:28:24.115Z,4.17
2019-03-18T00:29:24.127Z,4.08
2019-03-18T00:30:24.110Z,4.17
2019-03-18T00:31:24.092Z,4.16
2019-03-18T00:32:24.083Z,4.16
2019-03-18T00:33:24.068Z,4.19
2019-03-18T00:34:24.052Z,4.19
2019-03-18T00:35:24.054Z,4.16
2019-03-18T00:36:24.054Z,4.22
2019-03-18T00:37:24.017Z,4.22
2019-03-18T00:38:24.009Z,4.17
2019-03-18T00:39:23.998Z,4.13
2019-03-18T00:40:23.987Z,4.14
2019-03-18T00:41:23.990Z,4.10
2019-03-18T00:42:23.964Z,4.17
2019-03-18T00:43:24.014Z,4.19
2019-03-18T00:44:23.938Z,4.31
2019-03-18T00:45:23.926Z,4.20
2019-03-18T00:46:23.918Z,4.19
2019-03-18T00:47:23.924Z,4.14
2019-03-18T00:48:23.894Z,4.24
2019-03-18T00:49:23.932Z,4.20
2019-03-18T00:50:23.873Z,4.24
2019-03-18T00:51:23.878Z,4.19
2019-03-18T00:52:23.853Z,4.31
2019-03-18T00:53:23.857Z,4.28
2019-03-18T00:54:23.830Z,4.28
2019-03-18T00:55:23.820Z,4.35
2019-03-18T00:56:23.851Z,4.31
2019-03-18T00:57:23.803Z,4.30
2019-03-18T00:58:23.797Z,4.31
2019-03-18T00:59:23.786Z,4.38
2019-03-18T01:00:23.763Z,4.40
2019-03-18T01:01:23.754Z,4.34
2019-03-18T01:02:23.786Z,4.40
2019-03-18T01:03:23.729Z,4.32
2019-03-18T01:04:23.740Z,4.37
2019-03-18T01:05:23.715Z,4.30
2019-03-18T01:06:23.698Z,4.34
2019-03-18T01:07:23.685Z,4.30
2019-03-18T01:08:23.718Z,4.26
2019-03-18T01:09:23.664Z,4.37
2019-03-18T01:10:23.665Z,4.30
2019-03-18T01:11:23.645Z,4.28
2019-03-18T01:12:23.631Z,4.31
2019-03-18T01:13:23.636Z,4.24
2019-03-18T01:14:23.623Z,4.28
2019-03-18T01:15:28.320Z,4.31
2019-03-18T01:16:24.585Z,4.24
2019-03-18T01:17:23.577Z,4.28
2019-03-18T01:18:23.569Z,4.32
2019-03-18T01:19:23.554Z,4.38
2019-03-18T01:20:23.558Z,4.34
2019-03-18T01:21:23.556Z,4.31
2019-03-18T01:22:23.522Z,4.30
2019-03-18T01:23:23.512Z,4.28
2019-03-18T01:24:23.500Z,4.30
2019-03-18T01:25:23.490Z,4.45
2019-03-18T01:26:23.498Z,4.26
2019-03-18T01:27:25.458Z,4.30
2019-03-18T01:28:23.459Z,4.37
2019-03-18T01:29:23.513Z,4.35
2019-03-18T01:30:23.434Z,4.30
2019-03-18T01:31:23.422Z,4.30
2019-03-18T01:32:23.446Z,4.24
2019-03-18T01:33:23.435Z,4.31
2019-03-18T01:34:23.397Z,4.20
2019-03-18T01:35:23.381Z,4.14
2019-03-18T01:36:23.398Z,4.20
2019-03-18T01:37:23.357Z,4.26
2019-03-18T01:38:23.356Z,4.23
2019-03-18T01:39:23.362Z,4.16
2019-03-18T01:40:23.325Z,4.12
2019-03-18T01:41:23.328Z,4.14
2019-03-18T01:42:23.301Z,4.06
2019-03-18T01:43:23.291Z,3.96
2019-03-18T01:44:23.306Z,4.04
2019-03-18T01:45:23.310Z,4.02
2019-03-18T01:46:23.262Z,3.99
2019-03-18T01:47:23.249Z,3.95
2019-03-18T01:48:23.239Z,3.99
2019-03-18T01:49:23.244Z,3.99
2019-03-18T01:50:23.215Z,4.06
2019-03-18T01:51:23.241Z,3.99
2019-03-18T01:52:23.195Z,3.99
2019-03-18T01:53:23.185Z,4.02
2019-03-18T01:54:23.176Z,3.98
2019-03-18T01:55:23.193Z,3.99
2019-03-18T01:56:23.152Z,3.95
2019-03-18T01:57:23.212Z,3.99
2019-03-18T01:58:23.129Z,4.02
2019-03-18T01:59:23.119Z,4.01
2019-03-18T02:00:23.107Z,3.96
2019-03-18T02:01:23.111Z,3.95
2019-03-18T02:02:23.083Z,3.98
2019-03-18T02:03:23.098Z,3.94
2019-03-18T02:04:23.069Z,4.01
2019-03-18T02:05:23.050Z,3.98
2019-03-18T02:06:23.040Z,3.94
2019-03-18T02:07:23.039Z,3.98
2019-03-18T02:08:23.019Z,3.92
2019-03-18T02:09:23.068Z,3.98
2019-03-18T02:10:23.051Z,3.99
2019-03-18T02:11:23.075Z,3.95
2019-03-18T02:12:22.974Z,3.98
2019-03-18T02:13:22.989Z,3.98
2019-03-18T02:14:23.023Z,3.99
2019-03-18T02:15:22.989Z,3.99
2019-03-18T02:16:22.948Z,4.05
2019-03-18T02:17:22.924Z,4.02
2019-03-18T02:18:22.917Z,4.06
2019-03-18T02:19:22.920Z,4.08
2019-03-18T02:20:22.898Z,4.10
2019-03-18T02:21:22.876Z,4.12
2019-03-18T02:22:22.929Z,4.12
2019-03-18T02:23:22.854Z,4.14
2019-03-18T02:24:22.842Z,4.12
2019-03-18T02:25:22.842Z,3.95
2019-03-18T02:26:22.836Z,4.10
2019-03-18T02:27:22.816Z,4.08
2019-03-18T02:28:22.842Z,3.99
2019-03-18T02:29:22.787Z,4.04
2019-03-18T02:30:22.777Z,4.02
2019-03-18T02:31:22.785Z,3.99
2019-03-18T02:32:22.754Z,3.99
2019-03-18T02:33:22.770Z,4.01
2019-03-18T02:34:22.734Z,3.99
2019-03-18T02:35:22.749Z,4.01
2019-03-18T02:36:22.711Z,3.96
2019-03-18T02:37:22.704Z,3.99
2019-03-18T02:38:22.707Z,3.99
2019-03-18T02:39:22.687Z,3.96
2019-03-18T02:40:22.666Z,3.94
2019-03-18T02:41:22.705Z,3.92
2019-03-18T02:42:22.677Z,3.98
2019-03-18T02:43:22.645Z,3.92
2019-03-18T02:44:22.762Z,4.01
2019-03-18T02:45:24.635Z,3.99
2019-03-18T02:46:22.650Z,3.99
2019-03-18T02:47:22.592Z,3.95
2019-03-18T02:48:22.605Z,3.94
2019-03-18T02:49:22.578Z,4.04
2019-03-18T02:50:22.579Z,4.01
2019-03-18T02:51:22.547Z,4.02
2019-03-18T02:52:22.536Z,3.99
2019-03-18T02:53:22.523Z,4.08
2019-03-18T02:54:22.538Z,4.08
2019-03-18T02:55:22.521Z,3.98
2019-03-18T02:56:22.494Z,4.16
2019-03-18T02:57:22.480Z,4.12
2019-03-18T02:58:22.466Z,4.13
2019-03-18T02:59:22.459Z,4.19
2019-03-18T03:00:22.466Z,4.22
2019-03-18T03:01:22.452Z,4.24
2019-03-18T03:02:22.425Z,4.26
2019-03-18T03:03:22.414Z,4.28
2019-03-18T03:04:22.401Z,4.24
2019-03-18T03:05:22.421Z,4.14
2019-03-18T03:06:22.452Z,4.12
2019-03-18T03:07:22.388Z,4.16
2019-03-18T03:08:22.370Z,4.17
2019-03-18T03:09:22.348Z,4.17
2019-03-18T03:10:22.340Z,4.10
2019-03-18T03:11:22.323Z,4.13
2019-03-18T03:12:22.352Z,4.10
2019-03-18T03:13:22.325Z,4.14
2019-03-18T03:14:22.309Z,4.14
2019-03-18T03:15:22.298Z,4.06
2019-03-18T03:16:27.124Z,4.17
2019-03-18T03:17:23.256Z,4.06
2019-03-18T03:18:22.298Z,4.14
2019-03-18T03:19:22.269Z,4.08
2019-03-18T03:20:22.230Z,4.10
2019-03-18T03:21:22.226Z,4.13
2019-03-18T03:22:22.210Z,4.16
2019-03-18T03:23:22.206Z,4.20
2019-03-18T03:24:22.216Z,4.17
2019-03-18T03:25:24.793Z,4.19
2019-03-18T03:26:22.161Z,4.12
2019-03-18T03:27:22.163Z,4.20
2019-03-18T03:28:22.138Z,4.30
2019-03-18T03:29:22.127Z,4.26
2019-03-18T03:30:22.147Z,4.34
2019-03-18T03:31:22.109Z,4.24
2019-03-18T03:32:22.104Z,4.37
2019-03-18T03:33:22.103Z,4.34
2019-03-18T03:34:22.079Z,4.30
2019-03-18T03:35:22.164Z,4.32
2019-03-18T03:36:22.086Z,4.32
2019-03-18T03:37:22.044Z,4.30
2019-03-18T03:38:22.027Z,4.24
2019-03-18T03:39:22.031Z,4.31
2019-03-18T03:40:22.013Z,4.44
2019-03-18T03:41:22.004Z,4.26
2019-03-18T03:42:21.989Z,4.37
2019-03-18T03:43:22.018Z,4.32
2019-03-18T03:44:21.969Z,4.38
2019-03-18T03:45:21.964Z,4.38
2019-03-18T03:46:21.944Z,4.38
2019-03-18T03:47:21.933Z,4.40
2019-03-18T03:48:21.949Z,4.35
2019-03-18T03:49:21.944Z,4.45
2019-03-18T03:50:21.898Z,4.37
2019-03-18T03:51:21.906Z,4.48
2019-03-18T03:52:21.874Z,4.38
2019-03-18T03:53:21.871Z,4.40
2019-03-18T03:54:21.863Z,4.42
2019-03-18T03:55:21.858Z,4.40
2019-03-18T03:56:21.865Z,4.44
2019-03-18T03:57:21.832Z,4.26
2019-03-18T03:58:21.813Z,4.30
2019-03-18T03:59:21.796Z,4.28
2019-03-18T04:00:21.790Z,4.28
2019-03-18T04:01:21.795Z,4.31
2019-03-18T04:02:21.799Z,4.31
2019-03-18T04:03:37.241Z,4.31
2019-03-18T04:04:22.741Z,4.42
2019-03-18T04:05:21.735Z,4.30
2019-03-18T04:06:21.720Z,4.28
2019-03-18T04:07:21.726Z,4.31
2019-03-18T04:08:21.740Z,4.31
2019-03-18T04:09:21.688Z,4.31
2019-03-18T04:10:21.680Z,4.31
2019-03-18T04:11:21.670Z,4.40
2019-03-18T04:12:21.657Z,4.45
2019-03-18T04:13:21.662Z,4.32
2019-03-18T04:14:21.637Z,4.41
2019-03-18T04:15:21.673Z,4.40
2019-03-18T04:16:21.616Z,4.41
2019-03-18T04:17:21.601Z,4.37
2019-03-18T04:18:21.607Z,4.45
2019-03-18T04:19:21.577Z,4.44
2019-03-18T04:20:21.570Z,4.53
2019-03-18T04:21:21.610Z,4.48
2019-03-18T04:22:21.552Z,4.44
2019-03-18T04:23:21.559Z,4.32
2019-03-18T04:24:21.529Z,4.45
2019-03-18T04:25:21.511Z,4.45
2019-03-18T04:26:21.502Z,4.38
2019-03-18T04:27:24.597Z,4.38
2019-03-18T04:28:21.518Z,4.42
2019-03-18T04:29:21.480Z,4.35
2019-03-18T04:30:21.469Z,4.49
2019-03-18T04:31:21.450Z,4.30
2019-03-18T04:32:21.439Z,4.28
2019-03-18T04:33:21.430Z,4.26
2019-03-18T04:34:21.465Z,4.37
2019-03-18T04:35:21.403Z,4.24
2019-03-18T04:36:21.392Z,4.28
2019-03-18T04:37:21.387Z,4.34
2019-03-18T04:38:21.387Z,4.34
2019-03-18T04:39:21.358Z,4.30
2019-03-18T04:40:21.410Z,4.32
2019-03-18T04:41:21.339Z,4.42
2019-03-18T04:42:21.327Z,4.40
2019-03-18T04:43:21.314Z,4.32
2019-03-18T04:44:21.306Z,4.30
2019-03-18T04:45:21.295Z,4.32
2019-03-18T04:46:21.338Z,4.34
2019-03-18T04:47:21.271Z,4.30
2019-03-18T04:48:21.262Z,4.24
2019-03-18T04:49:21.251Z,4.26
2019-03-18T04:50:21.242Z,4.30
2019-03-18T04:51:21.227Z,4.31
2019-03-18T04:52:21.259Z,4.23
2019-03-18T04:53:21.206Z,4.28
2019-03-18T04:54:21.201Z,4.22
2019-03-18T04:55:21.184Z,4.14
2019-03-18T04:56:21.172Z,4.17
2019-03-18T04:57:21.173Z,4.17
2019-03-18T04:58:21.213Z,4.13
2019-03-18T04:59:21.139Z,4.12
2019-03-18T05:00:21.129Z,4.10
2019-03-18T05:01:21.117Z,4.10
2019-03-18T05:02:21.107Z,4.14
2019-03-18T05:03:21.098Z,4.13
2019-03-18T05:04:21.119Z,4.16
2019-03-18T05:05:21.083Z,4.13
2019-03-18T05:06:21.064Z,4.06
2019-03-18T05:07:21.079Z,4.17
2019-03-18T05:08:21.042Z,4.13
2019-03-18T05:09:21.061Z,4.12
2019-03-18T05:10:21.057Z,4.20
2019-03-18T05:11:21.009Z,4.16
2019-03-18T05:12:20.997Z,4.17
2019-03-18T05:13:20.982Z,4.16
2019-03-18T05:14:20.970Z,4.16
2019-03-18T05:15:20.977Z,4.17
2019-03-18T05:16:20.970Z,4.20
2019-03-18T05:17:26.675Z,4.17
2019-03-18T05:18:21.925Z,4.14
2019-03-18T05:19:20.916Z,4.16
2019-03-18T05:20:20.905Z,4.13
2019-03-18T05:21:20.911Z,4.19
2019-03-18T05:22:20.903Z,4.13
2019-03-18T05:23:20.876Z,4.13
2019-03-18T05:24:20.861Z,4.16
2019-03-18T05:25:20.850Z,4.22
2019-03-18T05:26:22.350Z,4.17
2019-03-18T05:27:20.839Z,4.16
2019-03-18T05:28:20.835Z,4.14
2019-03-18T05:29:20.811Z,4.12
2019-03-18T05:30:20.844Z,4.14
2019-03-18T05:31:20.783Z,4.16
2019-03-18T05:32:20.788Z,4.28
2019-03-18T05:33:20.762Z,4.24
2019-03-18T05:34:20.790Z,4.26
2019-03-18T05:35:20.741Z,4.32
2019-03-18T05:36:20.729Z,4.28
2019-03-18T05:37:20.718Z,4.28
2019-03-18T05:38:20.736Z,4.26
2019-03-18T05:39:20.696Z,4.26
2019-03-18T05:40:20.707Z,4.26
2019-03-18T05:41:20.714Z,4.20
2019-03-18T05:42:20.662Z,4.17
2019-03-18T05:43:20.652Z,4.14
2019-03-18T05:44:20.663Z,4.13
2019-03-18T05:45:20.631Z,4.22
2019-03-18T05:46:20.639Z,4.17
2019-03-18T05:47:20.607Z,4.19
2019-03-18T05:48:20.599Z,4.28
2019-03-18T05:49:20.585Z,4.28
2019-03-18T05:50:20.592Z,4.31
2019-03-18T05:51:20.564Z,4.34
2019-03-18T05:52:20.572Z,4.24
2019-03-18T05:53:20.542Z,4.35
2019-03-18T05:54:20.538Z,4.30
2019-03-18T05:55:20.520Z,4.26
2019-03-18T05:56:20.521Z,4.34
2019-03-18T05:57:20.510Z,4.32
2019-03-18T05:58:20.518Z,4.30
2019-03-18T05:59:20.486Z,4.34
2019-03-18T06:00:20.468Z,4.24
2019-03-18T06:01:20.486Z,4.17
2019-03-18T06:02:20.443Z,4.22
2019-03-18T06:03:20.433Z,4.14
2019-03-18T06:04:20.462Z,4.14
2019-03-18T06:05:20.411Z,4.24
2019-03-18T06:06:20.400Z,4.26
2019-03-18T06:07:20.402Z,4.14
2019-03-18T06:08:20.379Z,4.16
2019-03-18T06:09:20.367Z,4.13
2019-03-18T06:10:20.396Z,4.17
2019-03-18T06:11:20.346Z,4.23
2019-03-18T06:12:20.349Z,4.16
2019-03-18T06:13:20.323Z,4.19
2019-03-18T06:14:20.312Z,4.13
2019-03-18T06:15:20.302Z,4.14
2019-03-18T06:16:20.313Z,4.17
2019-03-18T06:17:20.278Z,4.26
2019-03-18T06:18:20.282Z,4.32
2019-03-18T06:19:20.259Z,4.28
2019-03-18T06:20:20.247Z,4.37
2019-03-18T06:21:20.235Z,4.31
2019-03-18T06:22:20.251Z,4.34
2019-03-18T06:23:20.225Z,4.32
2019-03-18T06:24:20.218Z,4.35
2019-03-18T06:25:20.195Z,4.32
2019-03-18T06:26:20.181Z,4.30
2019-03-18T06:27:20.170Z,4.31
2019-03-18T06:28:20.189Z,4.31
2019-03-18T06:29:20.177Z,4.26
2019-03-18T06:30:20.137Z,4.30
2019-03-18T06:31:20.126Z,4.28
2019-03-18T06:32:20.113Z,4.34
2019-03-18T06:33:20.103Z,4.32
2019-03-18T06:34:20.130Z,4.26
2019-03-18T06:35:20.700Z,4.38
2019-03-18T06:36:20.070Z,4.30
2019-03-18T06:37:20.076Z,4.26
2019-03-18T06:38:20.048Z,4.28
2019-03-18T06:39:20.042Z,4.42
2019-03-18T06:40:20.046Z,4.38
2019-03-18T06:41:20.030Z,4.32
2019-03-18T06:42:20.006Z,4.35
2019-03-18T06:43:19.993Z,4.32
2019-03-18T06:44:19.985Z,4.35
2019-03-18T06:45:19.974Z,4.31
2019-03-18T06:46:19.979Z,4.31
2019-03-18T06:47:19.967Z,4.30
2019-03-18T06:48:19.940Z,4.40
2019-03-18T06:49:19.928Z,4.44
2019-03-18T06:50:19.917Z,4.31
2019-03-18T06:51:19.906Z,4.37
2019-03-18T06:52:19.911Z,4.50
2019-03-18T06:53:19.900Z,4.50
2019-03-18T06:54:19.878Z,4.53
2019-03-18T06:55:19.863Z,4.48
2019-03-18T06:56:19.851Z,4.59
2019-03-18T06:57:19.840Z,4.52
2019-03-18T06:58:19.877Z,4.60
2019-03-18T06:59:19.818Z,4.66
2019-03-18T07:00:19.808Z,4.73
2019-03-18T07:01:19.796Z,4.66
2019-03-18T07:02:19.785Z,4.71
2019-03-18T07:03:19.774Z,4.78
2019-03-18T07:04:19.813Z,4.67
2019-03-18T07:05:19.756Z,4.71
2019-03-18T07:06:19.741Z,4.87
2019-03-18T07:07:19.732Z,4.82
2019-03-18T07:08:19.720Z,4.90
2019-03-18T07:09:19.736Z,4.93
2019-03-18T07:10:19.729Z,4.96
2019-03-18T07:11:19.693Z,5.07
2019-03-18T07:12:19.680Z,5.07
2019-03-18T07:13:19.682Z,5.12
2019-03-18T07:14:19.654Z,5.18
2019-03-18T07:15:19.676Z,5.29
2019-03-18T07:16:19.648Z,5.48
2019-03-18T07:17:19.623Z,5.53
2019-03-18T07:18:19.612Z,5.59
2019-03-18T07:19:19.599Z,5.44
2019-03-18T07:20:19.590Z,5.41
2019-03-18T07:21:19.616Z,5.46
2019-03-18T07:22:19.567Z,5.68
2019-03-18T07:23:19.559Z,5.65
2019-03-18T07:24:19.553Z,5.53
2019-03-18T07:25:19.535Z,5.43
2019-03-18T07:26:19.527Z,5.62
2019-03-18T07:27:19.563Z,5.59
2019-03-18T07:28:19.516Z,5.54
2019-03-18T07:29:19.490Z,5.54
2019-03-18T07:30:19.479Z,5.57
2019-03-18T07:31:19.469Z,5.57
2019-03-18T07:32:19.458Z,5.75
2019-03-18T07:33:19.486Z,5.84
2019-03-18T07:34:19.435Z,5.83
2019-03-18T07:35:19.427Z,5.69
2019-03-18T07:36:19.416Z,5.80
2019-03-18T07:37:19.403Z,5.72
2019-03-18T07:38:19.392Z,5.75
2019-03-18T07:39:19.428Z,5.84
2019-03-18T07:40:19.387Z,5.83
2019-03-18T07:41:19.359Z,5.91
2019-03-18T07:42:19.349Z,5.99
2019-03-18T07:43:19.340Z,6.04
2019-03-18T07:44:19.328Z,5.94
2019-03-18T07:45:19.339Z,5.87
2019-03-18T07:46:19.320Z,5.80
2019-03-18T07:47:19.295Z,5.82
2019-03-18T07:48:30.291Z,6.30
2019-03-18T07:49:20.272Z,6.63
2019-03-18T07:50:19.261Z,6.46
2019-03-18T07:51:19.270Z,6.74
2019-03-18T07:52:21.747Z,6.88
2019-03-18T07:53:19.228Z,7.17
2019-03-18T07:54:31.915Z,7.24
2019-03-18T07:55:20.204Z,6.97
2019-03-18T07:56:19.195Z,6.99
2019-03-18T07:57:19.222Z,6.93
2019-03-18T07:58:22.224Z,7.13
2019-03-18T07:59:19.161Z,7.32
2019-03-18T08:00:19.181Z,7.32
2019-03-18T08:01:19.139Z,7.32
2019-03-18T08:02:19.128Z,7.31
2019-03-18T08:03:19.149Z,7.42
2019-03-18T08:04:19.123Z,7.50
2019-03-18T08:05:19.095Z,7.54
2019-03-18T08:06:19.087Z,7.60
2019-03-18T08:07:19.073Z,7.56
2019-03-18T08:08:19.095Z,7.29
2019-03-18T08:09:19.074Z,6.99
2019-03-18T08:10:19.058Z,7.05
2019-03-18T08:11:19.028Z,7.05
2019-03-18T08:12:19.018Z,7.06
2019-03-18T08:13:19.009Z,7.17
2019-03-18T08:14:19.012Z,7.29
2019-03-18T08:15:19.006Z,7.35
2019-03-18T08:16:18.974Z,7.50
2019-03-18T08:17:18.962Z,7.66
2019-03-18T08:18:18.953Z,7.66
2019-03-18T08:19:18.942Z,7.80
2019-03-18T08:20:18.941Z,7.80
2019-03-18T08:21:18.948Z,7.63
2019-03-18T08:22:18.923Z,7.50
2019-03-18T08:23:18.900Z,7.36
2019-03-18T08:24:18.891Z,7.31
2019-03-18T08:25:18.877Z,7.38
2019-03-18T08:26:18.865Z,7.43
2019-03-18T08:27:18.877Z,7.40
2019-03-18T08:28:18.860Z,7.14
2019-03-18T08:29:18.832Z,7.24
2019-03-18T08:30:18.831Z,7.39
2019-03-18T08:31:18.832Z,7.40
2019-03-18T08:32:18.869Z,7.31
2019-03-18T08:33:18.836Z,7.39
2019-03-18T08:34:18.778Z,7.32
2019-03-18T08:35:18.766Z,7.35
2019-03-18T08:36:18.767Z,7.38
2019-03-18T08:37:18.742Z,7.17
2019-03-18T08:38:18.749Z,7.33
2019-03-18T08:39:18.735Z,7.53
2019-03-18T08:40:18.711Z,7.75
2019-03-18T08:41:18.747Z,7.98
2019-03-18T08:42:18.687Z,8.00
2019-03-18T08:43:18.689Z,8.03
2019-03-18T08:44:18.665Z,8.03
2019-03-18T08:45:18.653Z,8.30
2019-03-18T08:46:18.642Z,8.45
2019-03-18T08:47:18.648Z,8.38
2019-03-18T08:48:18.621Z,8.24
2019-03-18T08:49:18.638Z,8.27
2019-03-18T08:50:18.599Z,7.91
2019-03-18T08:51:18.588Z,7.69
2019-03-18T08:52:18.579Z,7.72
2019-03-18T08:53:18.585Z,7.67
2019-03-18T08:54:18.553Z,7.70
2019-03-18T08:55:18.564Z,7.83
2019-03-18T08:56:18.533Z,7.83
2019-03-18T08:57:18.525Z,7.77
2019-03-18T08:58:18.549Z,7.82
2019-03-18T08:59:18.498Z,7.85
2019-03-18T09:00:18.540Z,7.77
2019-03-18T09:01:18.530Z,7.73
2019-03-18T09:02:18.465Z,7.91
2019-03-18T09:03:18.455Z,7.72
2019-03-18T09:04:18.466Z,7.66
2019-03-18T09:05:18.433Z,7.60
2019-03-18T09:06:18.425Z,7.66
2019-03-18T09:07:18.434Z,7.56
2019-03-18T09:08:18.400Z,7.45
2019-03-18T09:09:18.392Z,7.48
2019-03-18T09:10:18.391Z,7.50
2019-03-18T09:11:18.368Z,7.76
2019-03-18T09:12:18.355Z,7.97
2019-03-18T09:13:18.376Z,7.95
2019-03-18T09:14:18.332Z,8.03
2019-03-18T09:15:18.325Z,8.23
2019-03-18T09:16:18.334Z,8.33
2019-03-18T09:17:18.300Z,8.24
2019-03-18T09:18:18.291Z,8.26
2019-03-18T09:19:18.299Z,8.37
2019-03-18T09:20:18.283Z,8.45
2019-03-18T09:21:18.271Z,8.67
2019-03-18T09:22:18.245Z,8.70
2019-03-18T09:23:18.251Z,8.69
2019-03-18T09:24:18.237Z,8.61
2019-03-18T09:25:18.250Z,8.84
2019-03-18T09:26:18.202Z,8.88
2019-03-18T09:27:18.214Z,8.84
2019-03-18T09:28:18.180Z,8.97
2019-03-18T09:29:18.168Z,8.97
2019-03-18T09:30:18.156Z,9.02
2019-03-18T09:31:18.223Z,8.97
2019-03-18T09:32:18.153Z,9.13
2019-03-18T09:33:18.124Z,9.18
2019-03-18T09:34:18.114Z,9.23
2019-03-18T09:35:18.102Z,9.31
2019-03-18T09:36:18.091Z,9.50
2019-03-18T09:37:18.112Z,9.40
2019-03-18T09:38:18.085Z,9.39
2019-03-18T09:39:18.058Z,9.47
2019-03-18T09:40:18.047Z,9.29
2019-03-18T09:41:18.037Z,9.25
2019-03-18T09:42:18.260Z,9.29
2019-03-18T09:43:18.058Z,9.54
2019-03-18T09:44:18.004Z,9.56
2019-03-18T09:45:17.998Z,9.59
2019-03-18T09:46:17.982Z,9.66
2019-03-18T09:47:17.974Z,9.40
2019-03-18T09:48:17.960Z,9.43
2019-03-18T09:49:21.896Z,9.55
2019-03-18T09:50:17.995Z,9.47
2019-03-18T09:51:17.928Z,9.54
2019-03-18T09:52:17.929Z,9.43
2019-03-18T09:53:17.907Z,9.46
2019-03-18T09:54:17.895Z,9.46
2019-03-18T09:55:17.923Z,9.28
2019-03-18T09:56:17.872Z,9.29
2019-03-18T09:57:26.097Z,9.06
2019-03-18T09:58:18.855Z,9.03
2019-03-18T09:59:17.845Z,9.02
2019-03-18T10:00:17.828Z,9.06
2019-03-18T10:01:17.873Z,9.29
2019-03-18T10:02:17.806Z,9.43
2019-03-18T10:03:17.812Z,9.58
2019-03-18T10:04:17.785Z,9.41
2019-03-18T10:05:17.775Z,9.37
2019-03-18T10:06:17.763Z,9.31
2019-03-18T10:07:17.777Z,9.03
2019-03-18T10:08:17.741Z,8.91
2019-03-18T10:09:17.752Z,8.94
2019-03-18T10:10:17.722Z,8.97
2019-03-18T10:11:17.710Z,8.84
2019-03-18T10:12:17.741Z,8.81
2019-03-18T10:13:17.686Z,8.78
2019-03-18T10:14:19.613Z,8.73
2019-03-18T10:15:17.677Z,8.78
2019-03-18T10:16:17.658Z,8.76
2019-03-18T10:17:17.643Z,8.76
2019-03-18T10:18:17.648Z,8.69
2019-03-18T10:19:17.621Z,8.67
2019-03-18T10:20:17.622Z,8.63
2019-03-18T10:21:17.611Z,8.55
2019-03-18T10:22:17.587Z,8.49
2019-03-18T10:23:17.579Z,8.42
2019-03-18T10:24:17.589Z,8.46
2019-03-18T10:25:17.558Z,8.49
2019-03-18T10:26:17.580Z,8.44
2019-03-18T10:27:17.533Z,8.36
2019-03-18T10:28:17.535Z,8.30
2019-03-18T10:29:17.510Z,8.36
2019-03-18T10:30:17.521Z,8.36
2019-03-18T10:31:17.517Z,8.37
2019-03-18T10:32:17.494Z,8.46
2019-03-18T10:33:17.467Z,8.45
2019-03-18T10:34:17.455Z,8.49
2019-03-18T10:35:17.447Z,8.42
2019-03-18T10:36:17.466Z,8.42
2019-03-18T10:37:17.427Z,8.33
2019-03-18T10:38:17.426Z,8.26
2019-03-18T10:39:17.402Z,8.18
2019-03-18T10:40:17.392Z,8.09
2019-03-18T10:41:17.379Z,8.19
2019-03-18T10:42:17.386Z,8.19
2019-03-18T10:43:17.360Z,8.12
2019-03-18T10:44:17.376Z,8.19
2019-03-18T10:45:17.341Z,8.19
2019-03-18T10:46:17.324Z,8.10
2019-03-18T10:47:17.312Z,7.85
2019-03-18T10:48:17.340Z,7.61
2019-03-18T10:49:17.291Z,7.48
2019-03-18T10:50:17.291Z,7.36
2019-03-18T10:51:17.271Z,7.25
2019-03-18T10:52:17.263Z,7.07
2019-03-18T10:53:17.300Z,7.05
2019-03-18T10:54:17.275Z,7.07
2019-03-18T10:55:17.225Z,6.95
2019-03-18T10:56:17.215Z,6.85
2019-03-18T10:57:17.202Z,6.85
2019-03-18T10:58:18.187Z,6.87
2019-03-18T10:59:17.197Z,6.92
2019-03-18T11:00:17.226Z,6.87
2019-03-18T11:01:17.162Z,6.87
2019-03-18T11:02:17.153Z,6.85
2019-03-18T11:03:17.137Z,6.88
2019-03-18T11:04:17.127Z,6.97
2019-03-18T11:05:17.137Z,6.89
2019-03-18T11:06:17.123Z,6.92
2019-03-18T11:07:17.095Z,6.93
2019-03-18T11:08:17.079Z,6.93
2019-03-18T11:09:17.068Z,6.99
2019-03-18T11:10:17.062Z,6.99
2019-03-18T11:11:17.079Z,7.06
2019-03-18T11:12:17.052Z,7.11
2019-03-18T11:13:17.028Z,7.17
2019-03-18T11:14:17.020Z,7.38
2019-03-18T11:15:17.007Z,7.36
2019-03-18T11:16:16.998Z,7.47
2019-03-18T11:17:17.001Z,7.53
2019-03-18T11:18:16.991Z,7.61
2019-03-18T11:19:16.963Z,7.47
2019-03-18T11:20:16.952Z,7.58
2019-03-18T11:21:16.942Z,7.50
2019-03-18T11:22:16.926Z,7.58
2019-03-18T11:23:16.926Z,7.50
2019-03-18T11:24:16.942Z,7.60
2019-03-18T11:25:16.889Z,7.58
2019-03-18T11:26:16.883Z,7.57
2019-03-18T11:27:16.869Z,7.61
2019-03-18T11:28:16.874Z,7.60
2019-03-18T11:29:16.852Z,7.57
2019-03-18T11:30:16.879Z,7.53
2019-03-18T11:31:16.824Z,7.51
2019-03-18T11:32:16.813Z,7.56
2019-03-18T11:33:16.827Z,7.63
2019-03-18T11:34:16.795Z,7.66
2019-03-18T11:35:16.782Z,7.69
2019-03-18T11:36:16.793Z,7.79
2019-03-18T11:37:16.762Z,7.91
2019-03-18T11:38:16.747Z,7.88
2019-03-18T11:39:16.747Z,7.95
2019-03-18T11:40:16.725Z,8.23
2019-03-18T11:41:17.558Z,8.49
2019-03-18T11:42:16.702Z,8.82
2019-03-18T11:43:16.705Z,9.02
2019-03-18T11:44:16.699Z,9.46
2019-03-18T11:45:16.674Z,9.56
2019-03-18T11:46:16.660Z,9.69
2019-03-18T11:47:16.685Z,9.97
2019-03-18T11:48:16.641Z,9.94
2019-03-18T11:49:16.625Z,9.97
2019-03-18T11:50:16.630Z,10.12
2019-03-18T11:51:16.606Z,10.25
2019-03-18T11:52:16.601Z,10.40
2019-03-18T11:53:16.618Z,10.72
2019-03-18T11:54:16.605Z,10.64
2019-03-18T11:55:16.572Z,10.49
2019-03-18T11:56:16.566Z,10.37
2019-03-18T11:57:16.540Z,10.51
2019-03-18T11:58:16.537Z,10.69
2019-03-18T11:59:16.536Z,10.86
2019-03-18T12:00:16.508Z,10.89
2019-03-18T12:01:16.494Z,10.93
2019-03-18T12:02:27.147Z,11.08
2019-03-18T12:03:17.473Z,11.14
2019-03-18T12:04:16.463Z,11.45
2019-03-18T12:05:16.484Z,11.51
2019-03-18T12:06:16.441Z,11.45
2019-03-18T12:07:16.433Z,11.36
2019-03-18T12:08:16.434Z,11.55
2019-03-18T12:09:16.409Z,11.54
2019-03-18T12:10:16.397Z,11.33
2019-03-18T12:11:16.424Z,10.76
2019-03-18T12:12:16.374Z,10.71
2019-03-18T12:13:16.363Z,10.57
2019-03-18T12:14:16.361Z,10.82
2019-03-18T12:15:16.343Z,11.08
2019-03-18T12:16:16.329Z,11.23
2019-03-18T12:17:16.335Z,11.43
2019-03-18T12:18:16.307Z,11.17
2019-03-18T12:19:16.306Z,11.29
2019-03-18T12:20:24.339Z,11.41
2019-03-18T12:21:17.273Z,11.25
2019-03-18T12:22:16.264Z,10.93
2019-03-18T12:23:16.293Z,10.69
2019-03-18T12:24:16.241Z,10.57
2019-03-18T12:25:16.228Z,10.34
2019-03-18T12:26:16.220Z,10.13
2019-03-18T12:27:16.205Z,9.87
2019-03-18T12:28:16.196Z,9.74
2019-03-18T12:29:16.234Z,9.54
2019-03-18T12:30:16.173Z,9.29
2019-03-18T12:31:16.181Z,9.23
2019-03-18T12:32:16.150Z,9.18
2019-03-18T12:33:16.141Z,9.16
2019-03-18T12:34:16.132Z,9.34
2019-03-18T12:35:16.148Z,9.55
2019-03-18T12:36:16.112Z,9.79
2019-03-18T12:37:16.113Z,10.05
2019-03-18T12:38:16.140Z,10.25
2019-03-18T12:39:16.077Z,10.42
2019-03-18T12:40:16.069Z,10.53
2019-03-18T12:41:16.071Z,10.69
2019-03-18T12:42:16.051Z,10.72
2019-03-18T12:43:16.044Z,10.59
2019-03-18T12:44:16.020Z,10.49
2019-03-18T12:45:16.008Z,10.07
2019-03-18T12:46:16.001Z,10.07
2019-03-18T12:47:16.010Z,9.92
2019-03-18T12:48:15.989Z,9.77
2019-03-18T12:49:15.965Z,9.86
2019-03-18T12:50:15.967Z,9.80
2019-03-18T12:51:15.943Z,9.79
2019-03-18T12:52:15.930Z,9.87
2019-03-18T12:53:15.962Z,9.92
2019-03-18T12:54:15.928Z,10.02
2019-03-18T12:55:15.899Z,10.01
2019-03-18T12:56:15.887Z,10.09
2019-03-18T12:57:15.878Z,10.10
2019-03-18T12:58:15.880Z,10.09
2019-03-18T12:59:15.894Z,10.01
2019-03-18T13:00:15.937Z,10.16
2019-03-18T13:01:15.833Z,9.99
2019-03-18T13:02:15.914Z,9.99
2019-03-18T13:03:15.810Z,9.84
2019-03-18T13:04:15.812Z,9.79
2019-03-18T13:05:15.840Z,9.74
2019-03-18T13:06:15.777Z,9.74
2019-03-18T13:07:15.766Z,9.72
2019-03-18T13:08:15.767Z,9.94
2019-03-18T13:09:15.743Z,10.16
2019-03-18T13:10:15.733Z,10.17
2019-03-18T13:11:15.743Z,10.31
2019-03-18T13:12:15.728Z,10.19
2019-03-18T13:13:15.704Z,10.15
2019-03-18T13:14:15.690Z,10.25
2019-03-18T13:15:15.680Z,10.09
2019-03-18T13:16:17.996Z,9.95